Time;durP1;ratioP1;P1;durP2;ratioP2;P2;SDS_P1;SDS_P2;PMS_P1;PMS_P2;Temp;Humidity;BMP_temperature;BMP_pressure;BME280_temperature;BME280_humidity;BME280_pressure;Samples;Min_cycle;Max_cycle;Signal;HPM_P1;HPM_P2
2021/12/17 00:05:07;;;;;;;19.55;9.50;;;4.90;99.90;;;;;;5073836;28;20515;-76
2021/12/17 00:07:35;;;;;;;15.57;7.68;;;4.70;99.90;;;;;;5053490;28;20381;-76
2021/12/17 00:10:06;;;;;;;15.23;7.97;;;4.60;99.90;;;;;;5053655;28;20039;-76
2021/12/17 00:12:31;;;;;;;14.27;8.95;;;4.50;99.90;;;;;;5053365;28;20369;-76
2021/12/17 00:14:58;;;;;;;16.77;9.15;;;4.40;99.90;;;;;;5052422;28;20084;-76
2021/12/17 00:17:29;;;;;;;15.70;8.02;;;4.30;99.90;;;;;;5053462;28;20050;-76
2021/12/17 00:52:22;;;;;;;16.70;7.97;;;3.20;99.90;;;;;;5052586;28;20381;-76
2021/12/17 00:54:49;;;;;;;14.27;7.93;;;3.10;99.90;;;;;;5061359;28;20021;-76
2021/12/17 00:57:23;;;;;;;15.52;9.20;;;3.10;99.90;;;;;;5074674;28;20097;-76
2021/12/17 00:59:51;;;;;;;20.85;9.27;;;3.10;99.90;;;;;;5093401;28;20031;-76
2021/12/17 01:02:20;;;;;;;19.75;9.18;;;3.10;99.90;;;;;;5093200;28;20046;-76
2021/12/17 01:04:50;;;;;;;15.00;8.27;;;3.00;99.90;;;;;;5090461;28;20035;-76
2021/12/17 01:07:18;;;;;;;16.48;8.73;;;3.00;99.90;;;;;;5072520;28;20130;-75
2021/12/17 01:09:45;;;;;;;12.43;8.35;;;2.90;99.90;;;;;;5072423;28;20484;-76
2021/12/17 01:12:14;;;;;;;14.48;7.82;;;2.90;99.90;;;;;;5072626;28;20476;-76
2021/12/17 01:14:40;;;;;;;13.93;7.93;;;2.80;99.90;;;;;;5072535;28;20039;-76
2021/12/17 01:17:08;;;;;;;11.55;6.95;;;2.80;99.90;;;;;;5072793;28;20051;-76
2021/12/17 01:35:23;;;;;;;20.38;9.88;;;3.10;99.90;;;;;;5072194;28;20051;-77
2021/12/17 01:43:11;;;;;;;19.90;9.68;;;3.30;99.90;;;;;;5072325;28;20078;-76
2021/12/17 01:45:39;;;;;;;19.45;9.50;;;3.40;99.90;;;;;;5071912;28;20057;-76
2021/12/17 01:48:09;;;;;;;15.70;9.07;;;3.40;99.90;;;;;;5072291;28;20032;-76
2021/12/17 01:56:28;;;;;;;24.10;10.95;;;3.40;99.90;;;;;;5072454;28;20094;-76
2021/12/17 02:01:37;;;;;;;21.30;11.18;;;3.40;99.90;;;;;;5064627;28;20036;-75
2021/12/17 02:04:04;;;;;;;23.63;11.20;;;3.30;99.90;;;;;;5071700;28;20069;-76
2021/12/17 02:06:33;;;;;;;22.38;11.02;;;3.30;99.90;;;;;;5091291;28;20027;-75
2021/12/17 02:09:00;;;;;;;19.95;10.75;;;3.40;99.90;;;;;;5092034;28;20039;-76
2021/12/17 02:12:06;;;;;;;24.98;12.05;;;3.30;99.90;;;;;;5058529;28;20032;-75
2021/12/17 02:20:10;;;;;;;25.30;11.95;;;3.20;99.90;;;;;;5071602;28;20094;-75
2021/12/17 02:31:24;;;;;;;23.15;11.32;;;3.10;99.90;;;;;;5072176;28;20515;-76
2021/12/17 02:33:50;;;;;;;23.15;12.15;;;3.00;99.90;;;;;;5072126;28;20024;-76
2021/12/17 02:36:20;;;;;;;26.05;13.13;;;3.10;99.90;;;;;;5071311;28;20115;-75
2021/12/17 02:38:46;;;;;;;23.42;12.02;;;3.10;99.90;;;;;;5088877;28;20083;-76
2021/12/17 02:46:40;;;;;;;28.27;12.60;;;3.00;99.90;;;;;;5075377;28;20023;-76
2021/12/17 02:49:07;;;;;;;28.98;12.80;;;3.10;99.90;;;;;;5074150;28;20473;-76
2021/12/17 02:51:33;;;;;;;32.30;14.80;;;3.30;99.90;;;;;;5074732;28;20495;-76
2021/12/17 02:53:59;;;;;;;24.10;12.35;;;3.40;99.90;;;;;;5075375;28;20017;-76
2021/12/17 02:56:25;;;;;;;28.02;13.75;;;3.50;99.90;;;;;;5075196;28;20503;-76
2021/12/17 02:58:53;;;;;;;26.48;13.27;;;3.60;99.90;;;;;;5073892;28;20047;-76
2021/12/17 03:01:19;;;;;;;25.83;12.48;;;3.70;99.90;;;;;;5075080;28;20496;-76
2021/12/17 03:03:48;;;;;;;23.65;12.32;;;3.80;99.90;;;;;;5075103;28;20023;-76
2021/12/17 03:06:14;;;;;;;18.48;9.85;;;3.90;99.90;;;;;;5074502;28;20103;-76
2021/12/17 03:08:39;;;;;;;25.40;12.15;;;4.00;99.90;;;;;;5057470;28;20429;-76
2021/12/17 03:11:05;;;;;;;28.88;12.85;;;4.00;99.90;;;;;;5054956;28;20104;-76
2021/12/17 03:13:33;;;;;;;22.75;11.85;;;4.00;99.90;;;;;;5053785;28;20021;-76
2021/12/17 03:23:43;;;;;;;23.50;11.52;;;4.20;99.90;;;;;;5077621;28;20498;-76
2021/12/17 03:26:24;;;;;;;15.32;8.65;;;4.20;99.90;;;;;;5071499;28;20029;-76
2021/12/17 03:28:52;;;;;;;18.55;10.23;;;4.20;99.90;;;;;;5054873;28;20036;-76
2021/12/17 03:31:19;;;;;;;24.10;11.23;;;4.20;99.90;;;;;;5074304;28;20476;-76
2021/12/17 03:33:48;;;;;;;19.58;11.38;;;4.30;99.90;;;;;;5073966;28;20025;-76
2021/12/17 03:36:15;;;;;;;22.95;12.05;;;4.30;99.90;;;;;;5073896;28;20021;-76
2021/12/17 03:38:47;;;;;;;24.45;11.05;;;4.30;99.90;;;;;;5073853;28;20063;-76
2021/12/17 03:43:47;;;;;;;20.55;11.18;;;4.30;99.90;;;;;;5094652;28;20426;-76
2021/12/17 03:46:14;;;;;;;21.83;11.48;;;4.30;99.90;;;;;;5094720;28;20410;-77
2021/12/17 03:48:40;;;;;;;26.88;14.45;;;4.40;99.90;;;;;;5092392;28;20028;-76
2021/12/17 03:51:13;;;;;;;25.25;13.98;;;4.50;99.90;;;;;;5094065;28;20042;-76
2021/12/17 03:53:41;;;;;;;31.67;14.82;;;4.60;99.90;;;;;;5085260;28;20027;-76
2021/12/17 03:56:07;;;;;;;29.77;15.35;;;4.70;99.90;;;;;;5073021;28;20100;-76
2021/12/17 03:58:33;;;;;;;31.67;15.88;;;4.80;99.90;;;;;;5072863;28;20544;-76
2021/12/17 04:00:58;;;;;;;28.88;14.85;;;5.00;99.90;;;;;;5072891;28;20059;-76
2021/12/17 04:03:25;;;;;;;25.85;14.02;;;5.20;99.90;;;;;;5073818;28;20031;-76
2021/12/17 04:05:50;;;;;;;22.70;12.43;;;5.20;99.90;;;;;;5073667;28;20024;-76
2021/12/17 04:08:16;;;;;;;31.17;15.75;;;5.20;99.90;;;;;;5074034;28;20028;-76
2021/12/17 04:10:46;;;;;;;30.13;16.25;;;5.30;99.90;;;;;;5073556;28;20025;-76
2021/12/17 04:13:27;;;;;;;28.80;15.63;;;5.30;99.90;;;;;;5073751;28;20024;-76
2021/12/17 04:15:59;;;;;;;32.88;16.52;;;5.40;99.90;;;;;;5073823;28;20051;-76
2021/12/17 04:18:26;;;;;;;24.70;14.52;;;5.50;99.90;;;;;;5064431;28;20083;-76
2021/12/17 04:20:51;;;;;;;31.80;15.93;;;5.60;99.90;;;;;;5056981;28;20025;-76
2021/12/17 04:23:18;;;;;;;27.25;16.27;;;5.60;99.90;;;;;;5073259;28;20024;-76
2021/12/17 04:25:43;;;;;;;31.35;16.95;;;5.70;99.90;;;;;;5073327;28;20032;-76
2021/12/17 04:28:09;;;;;;;31.00;16.08;;;5.70;99.90;;;;;;5073020;28;20033;-76
2021/12/17 04:30:35;;;;;;;25.73;13.45;;;5.70;99.90;;;;;;5077715;28;20028;-76
2021/12/17 04:33:01;;;;;;;33.53;17.10;;;5.70;99.90;;;;;;5081685;28;20020;-76
2021/12/17 04:35:27;;;;;;;28.00;14.93;;;5.70;99.90;;;;;;5083348;28;20031;-76
2021/12/17 04:37:52;;;;;;;27.58;16.08;;;5.80;99.90;;;;;;5073043;28;20028;-76
2021/12/17 04:40:21;;;;;;;33.45;17.73;;;5.80;99.90;;;;;;5073230;28;20036;-75
2021/12/17 04:42:59;;;;;;;31.00;17.48;;;5.80;99.90;;;;;;5072971;28;20048;-76
2021/12/17 04:45:26;;;;;;;33.60;16.80;;;5.80;99.90;;;;;;5073105;28;20554;-76
2021/12/17 04:58:49;;;;;;;37.47;18.77;;;5.90;99.90;;;;;;5072481;28;20515;-76
2021/12/17 05:01:16;;;;;;;43.75;20.10;;;5.90;99.90;;;;;;5072640;28;20029;-76
2021/12/17 05:03:42;;;;;;;37.78;19.67;;;5.90;99.90;;;;;;5071894;28;20035;-76
2021/12/17 05:06:08;;;;;;;35.72;19.55;;;5.90;99.90;;;;;;5071725;28;20024;-76
2021/12/17 05:08:34;;;;;;;37.17;20.52;;;5.90;99.90;;;;;;5072510;28;20032;-76
2021/12/17 05:19:45;;;;;;;38.03;19.67;;;5.90;99.90;;;;;;5072632;28;20391;-76
2021/12/17 05:22:12;;;;;;;33.72;18.73;;;5.90;99.90;;;;;;5072556;28;20059;-76
2021/12/17 05:24:38;;;;;;;49.15;22.95;;;5.90;99.90;;;;;;5071033;28;20119;-76
2021/12/17 05:27:04;;;;;;;41.92;22.25;;;5.80;99.90;;;;;;5078926;28;20111;-76
2021/12/17 05:29:30;;;;;;;46.53;20.70;;;5.90;99.90;;;;;;5077353;28;20037;-76
2021/12/17 05:31:56;;;;;;;32.88;18.45;;;5.90;99.90;;;;;;5071826;28;20411;-76
2021/12/17 05:34:21;;;;;;;41.67;20.65;;;5.90;99.90;;;;;;5072382;28;20048;-76
2021/12/17 05:36:47;;;;;;;37.45;19.92;;;5.80;99.90;;;;;;5074004;28;20068;-76
2021/12/17 05:39:14;;;;;;;37.47;19.65;;;5.80;99.90;;;;;;5090826;28;20484;-76
2021/12/17 05:41:39;;;;;;;33.22;18.65;;;5.80;99.90;;;;;;5087150;28;20467;-76
2021/12/17 05:44:05;;;;;;;38.83;20.15;;;5.70;99.90;;;;;;5084269;28;20036;-76
2021/12/17 05:46:49;;;;;;;48.28;21.50;;;5.70;99.90;;;;;;5071139;28;20067;-76
2021/12/17 05:49:20;;;;;;;37.20;20.27;;;5.80;99.90;;;;;;5061026;28;20036;-76
2021/12/17 05:51:48;;;;;;;35.90;17.65;;;5.70;99.90;;;;;;5072243;28;20064;-77
2021/12/17 05:54:13;;;;;;;33.08;18.42;;;5.80;99.90;;;;;;5079115;28;20033;-77
2021/12/17 05:56:40;;;;;;;36.70;18.35;;;5.70;99.90;;;;;;5072337;28;20123;-76
2021/12/17 05:59:06;;;;;;;30.33;15.63;;;5.70;99.90;;;;;;5072549;28;20421;-76
2021/12/17 06:01:33;;;;;;;43.58;21.05;;;5.70;99.90;;;;;;5073977;28;20040;-76
2021/12/17 06:03:59;;;;;;;42.60;22.02;;;5.70;99.90;;;;;;5071013;28;20033;-77
2021/12/17 06:06:35;;;;;;;50.45;22.92;;;5.70;99.90;;;;;;5072021;28;20032;-77
2021/12/17 06:09:05;;;;;;;50.97;22.55;;;5.80;99.90;;;;;;5074416;28;20029;-77
2021/12/17 06:11:31;;;;;;;49.97;24.98;;;5.80;99.90;;;;;;5083773;28;20052;-76
2021/12/17 06:13:57;;;;;;;51.67;25.50;;;5.80;99.90;;;;;;5076122;28;20071;-76
2021/12/17 06:16:22;;;;;;;46.47;23.58;;;5.80;99.90;;;;;;5078992;28;20453;-77
2021/12/17 06:18:48;;;;;;;53.95;27.13;;;5.80;99.90;;;;;;5072349;28;20055;-77
2021/12/17 06:21:14;;;;;;;57.90;26.40;;;5.90;99.90;;;;;;5068222;28;20032;-76
2021/12/17 06:23:40;;;;;;;55.80;27.55;;;5.90;99.90;;;;;;5073874;28;20017;-76
2021/12/17 06:26:06;;;;;;;45.67;23.98;;;6.00;99.90;;;;;;5073812;28;20024;-77
2021/12/17 06:28:32;;;;;;;60.95;25.20;;;6.00;99.90;;;;;;5074426;28;20586;-77
2021/12/17 06:30:57;;;;;;;42.45;23.20;;;6.00;99.90;;;;;;5075541;28;20033;-77
2021/12/17 06:33:23;;;;;;;50.63;22.80;;;6.00;99.90;;;;;;5074089;28;20460;-76
2021/12/17 06:35:49;;;;;;;46.95;23.95;;;6.00;99.90;;;;;;5075032;28;20032;-76
2021/12/17 06:38:14;;;;;;;51.08;24.90;;;6.00;99.90;;;;;;5077227;28;20112;-76
2021/12/17 06:40:40;;;;;;;41.83;21.83;;;6.00;99.90;;;;;;5079413;28;20028;-76
2021/12/17 06:43:06;;;;;;;42.58;22.58;;;6.00;99.90;;;;;;5074359;28;20024;-76
2021/12/17 06:46:16;;;;;;;40.42;20.55;;;6.00;99.90;;;;;;5073661;28;20078;-77
2021/12/17 06:48:27;;;;;;;38.33;20.08;;;6.00;99.90;;;;;;5074556;28;20037;-76
2021/12/17 06:59:12;;;;;;;48.10;25.80;;;6.00;99.90;;;;;;5074663;28;20044;-77
2021/12/17 07:18:46;;;;;;;54.22;25.48;;;6.00;99.90;;;;;;5080261;28;20036;-76
2021/12/17 07:30:03;;;;;;;60.13;29.98;;;6.00;99.90;;;;;;5076593;28;20546;-77
2021/12/17 07:32:18;;;;;;;66.15;31.75;;;6.10;99.90;;;;;;5079266;28;20476;-76
2021/12/17 07:39:39;;;;;;;62.45;29.65;;;6.10;99.90;;;;;;5075926;28;20028;-77
2021/12/17 07:42:05;;;;;;;77.30;31.75;;;6.10;99.90;;;;;;5074620;28;20051;-76
2021/12/17 07:44:32;;;;;;;63.75;29.63;;;6.10;99.90;;;;;;5088903;28;20396;-76
2021/12/17 07:46:57;;;;;;;66.70;30.73;;;6.20;99.90;;;;;;5092376;28;20503;-77
2021/12/17 07:49:23;;;;;;;61.13;29.52;;;6.20;99.90;;;;;;5092125;28;20060;-76
2021/12/17 07:51:49;;;;;;;60.25;29.17;;;6.20;99.90;;;;;;5084045;28;20506;-77
2021/12/17 07:54:14;;;;;;;49.55;24.60;;;6.20;99.90;;;;;;5082497;28;20111;-76
2021/12/17 07:56:40;;;;;;;63.45;29.52;;;6.10;99.90;;;;;;5093828;28;20085;-76
2021/12/17 07:59:08;;;;;;;62.28;32.10;;;6.10;99.90;;;;;;5085262;28;20443;-77
2021/12/17 08:01:35;;;;;;;68.43;34.05;;;6.20;99.90;;;;;;5073883;28;20067;-76
2021/12/17 08:04:02;;;;;;;63.17;32.42;;;6.20;99.90;;;;;;5081988;28;20042;-77
2021/12/17 08:06:28;;;;;;;63.92;30.80;;;6.20;99.90;;;;;;5077313;28;20024;-76
2021/12/17 08:08:54;;;;;;;62.55;30.70;;;6.20;99.90;;;;;;5079675;28;20070;-76
2021/12/17 08:11:21;;;;;;;58.38;28.80;;;6.20;99.90;;;;;;5074148;28;20066;-77
2021/12/17 08:13:47;;;;;;;58.83;26.77;;;6.20;99.90;;;;;;5075357;28;20103;-76
2021/12/17 08:31:27;;;;;;;54.83;24.83;;;6.20;99.90;;;;;;5087237;28;20027;-77
2021/12/17 08:33:54;;;;;;;47.53;23.77;;;6.20;99.90;;;;;;5072588;28;20433;-76
2021/12/17 08:36:20;;;;;;;51.13;24.73;;;6.20;99.90;;;;;;5074709;28;20400;-77
2021/12/17 08:38:49;;;;;;;38.88;22.27;;;6.20;99.90;;;;;;5077010;28;20020;-77
2021/12/17 08:41:16;;;;;;;47.88;22.83;;;6.20;99.90;;;;;;5074115;28;20552;-76
2021/12/17 08:43:42;;;;;;;56.55;24.17;;;6.20;99.90;;;;;;5087898;28;20032;-76
2021/12/17 08:46:08;;;;;;;47.55;24.35;;;6.20;99.90;;;;;;5074108;28;20115;-77
2021/12/17 08:48:34;;;;;;;44.50;21.40;;;6.20;99.90;;;;;;5072644;28;20031;-76
2021/12/17 08:51:01;;;;;;;48.63;23.27;;;6.30;99.90;;;;;;5071045;28;20021;-76
2021/12/17 08:53:26;;;;;;;52.83;25.52;;;6.30;99.90;;;;;;5072167;28;20025;-76
2021/12/17 08:55:52;;;;;;;54.67;25.70;;;6.40;99.90;;;;;;5070869;28;20167;-76
2021/12/17 08:58:18;;;;;;;52.53;25.10;;;6.50;99.90;;;;;;5071339;28;20401;-76
2021/12/17 09:00:44;;;;;;;47.05;24.13;;;6.50;99.90;;;;;;5063091;28;20060;-76
2021/12/17 09:03:11;;;;;;;47.67;23.45;;;6.60;99.90;;;;;;5072773;28;20032;-76
2021/12/17 09:05:39;;;;;;;41.63;21.40;;;6.70;99.90;;;;;;5087267;28;20028;-76
2021/12/17 09:08:06;;;;;;;70.57;24.85;;;6.60;99.90;;;;;;5092552;28;20036;-76
2021/12/17 09:10:32;;;;;;;45.88;25.17;;;6.60;99.90;;;;;;5083522;28;20380;-76
2021/12/17 09:12:59;;;;;;;50.40;25.50;;;6.60;99.90;;;;;;5083590;28;20099;-76
2021/12/17 09:15:24;;;;;;;53.40;24.00;;;6.60;99.90;;;;;;5075918;28;20043;-76
2021/12/17 09:17:50;;;;;;;52.00;23.15;;;6.60;99.90;;;;;;5089194;28;20032;-76
2021/12/17 09:20:16;;;;;;;48.05;24.50;;;6.60;99.90;;;;;;5086468;28;20040;-77
2021/12/17 09:22:41;;;;;;;50.35;24.30;;;6.60;99.90;;;;;;5071541;28;20028;-76
2021/12/17 09:25:08;;;;;;;41.72;21.27;;;6.60;99.90;;;;;;5072725;28;20043;-77
2021/12/17 09:27:34;;;;;;;50.70;21.55;;;6.60;99.90;;;;;;5081963;28;20032;-76
2021/12/17 09:29:59;;;;;;;46.83;23.08;;;6.60;99.90;;;;;;5084344;28;20024;-76
2021/12/17 09:32:25;;;;;;;41.22;21.60;;;6.60;99.90;;;;;;5076047;28;20035;-76
2021/12/17 09:34:51;;;;;;;43.92;22.02;;;6.70;99.90;;;;;;5073822;28;20029;-76
2021/12/17 09:37:17;;;;;;;35.92;18.98;;;6.70;99.90;;;;;;5076665;28;20031;-76
2021/12/17 09:39:43;;;;;;;37.47;18.90;;;6.80;99.90;;;;;;5078979;28;20028;-76
2021/12/17 09:42:10;;;;;;;28.35;16.65;;;6.80;99.90;;;;;;5081614;28;20032;-76
2021/12/17 09:44:35;;;;;;;36.80;16.55;;;6.80;99.90;;;;;;5072103;28;20055;-76
2021/12/17 09:47:01;;;;;;;33.85;15.80;;;6.80;99.90;;;;;;5066383;28;20021;-76
2021/12/17 09:49:27;;;;;;;38.58;16.75;;;6.80;99.90;;;;;;5056197;28;20048;-76
2021/12/17 09:51:52;;;;;;;29.73;15.23;;;6.80;99.90;;;;;;5076122;28;20033;-76
2021/12/17 09:54:18;;;;;;;28.17;15.85;;;6.80;99.90;;;;;;5083041;28;20479;-77
2021/12/17 09:56:44;;;;;;;30.90;13.75;;;6.80;99.90;;;;;;5078327;28;20493;-77
2021/12/17 09:59:10;;;;;;;24.95;13.35;;;6.90;99.90;;;;;;5096466;28;20024;-77
2021/12/17 10:01:40;;;;;;;23.90;11.68;;;6.90;99.90;;;;;;5094784;28;20379;-77
2021/12/17 10:04:11;;;;;;;26.73;13.88;;;6.90;99.90;;;;;;5094220;28;20411;-77
2021/12/17 10:06:37;;;;;;;26.88;11.55;;;7.00;99.90;;;;;;5076977;28;20035;-77
2021/12/17 10:09:03;;;;;;;20.75;11.95;;;7.00;99.90;;;;;;5075010;28;20012;-77
2021/12/17 10:11:30;;;;;;;23.25;11.85;;;7.10;99.90;;;;;;5079673;28;20056;-77
2021/12/17 10:13:55;;;;;;;22.85;10.35;;;7.20;99.90;;;;;;5067595;28;20020;-77
2021/12/17 10:16:21;;;;;;;20.90;10.77;;;7.20;99.90;;;;;;5078989;28;20469;-77
2021/12/17 10:18:49;;;;;;;18.90;10.38;;;7.20;99.90;;;;;;5076728;28;20035;-77
2021/12/17 10:21:24;;;;;;;17.67;10.63;;;7.20;99.90;;;;;;5072466;28;20469;-77
2021/12/17 10:23:54;;;;;;;15.55;9.52;;;7.20;99.90;;;;;;5081113;28;20021;-77
2021/12/17 10:26:21;;;;;;;14.73;8.02;;;7.20;99.90;;;;;;5089514;28;20043;-77
2021/12/17 10:28:59;;;;;;;16.23;8.93;;;7.20;99.90;;;;;;5077023;28;20032;-77
2021/12/17 10:31:27;;;;;;;16.50;8.13;;;7.20;99.90;;;;;;5078817;28;20024;-77
2021/12/17 10:33:55;;;;;;;18.85;8.88;;;7.30;99.90;;;;;;5073598;28;20457;-79
2021/12/17 10:36:36;;;;;;;14.15;7.60;;;7.30;99.90;;;;;;5087065;28;20028;-77
2021/12/17 10:39:20;;;;;;;13.48;8.48;;;7.30;99.90;;;;;;5066502;28;20032;-77
2021/12/17 10:41:48;;;;;;;14.05;7.97;;;7.30;99.90;;;;;;5082784;28;20028;-77
2021/12/17 10:44:14;;;;;;;10.30;7.10;;;7.40;99.90;;;;;;5080355;28;20031;-77
2021/12/17 10:46:56;;;;;;;13.07;7.53;;;7.40;99.90;;;;;;5088112;28;20028;-77
2021/12/17 10:49:25;;;;;;;17.98;9.32;;;7.30;99.90;;;;;;5083445;28;20028;-77
2021/12/17 10:52:13;;;;;;;17.05;9.15;;;7.40;99.90;;;;;;5074899;28;20044;-77
2021/12/17 10:54:38;;;;;;;18.42;10.02;;;7.40;99.90;;;;;;5080807;28;20056;-77
2021/12/17 10:57:07;;;;;;;17.58;9.93;;;7.50;99.90;;;;;;5088622;28;20055;-77
2021/12/17 10:59:35;;;;;;;19.20;10.48;;;7.40;99.90;;;;;;5074759;28;20419;-78
2021/12/17 11:02:07;;;;;;;19.83;11.13;;;7.50;99.90;;;;;;5078203;28;20024;-77
2021/12/17 11:04:35;;;;;;;21.58;10.85;;;7.50;99.90;;;;;;5074898;28;20046;-77
2021/12/17 11:07:06;;;;;;;21.15;11.30;;;7.50;99.90;;;;;;5077927;28;20029;-77
2021/12/17 11:09:47;;;;;;;16.95;9.38;;;7.60;99.90;;;;;;5079603;28;20073;-77
2021/12/17 11:12:28;;;;;;;14.45;9.07;;;7.60;99.90;;;;;;5094972;28;20012;-77
2021/12/17 11:20:55;;;;;;;12.85;7.75;;;7.60;99.90;;;;;;4977452;28;20190;-86
2021/12/17 11:23:22;;;;;;;12.90;6.63;;;7.60;99.90;;;;;;4994643;28;20446;-86
2021/12/17 11:25:49;;;;;;;15.25;8.10;;;7.60;99.90;;;;;;4989044;28;20104;-85
2021/12/17 11:28:17;;;;;;;12.68;7.47;;;7.60;99.90;;;;;;4994716;28;20406;-86
2021/12/17 11:30:46;;;;;;;14.40;7.65;;;7.60;99.90;;;;;;4978930;28;20019;-85
2021/12/17 11:33:12;;;;;;;11.80;7.47;;;7.60;99.90;;;;;;4987459;28;20030;-86
2021/12/17 11:35:42;;;;;;;12.23;7.78;;;7.60;99.90;;;;;;4993617;28;20041;-85
2021/12/17 11:38:15;;;;;;;16.30;8.95;;;7.60;99.90;;;;;;4975835;28;20035;-83
2021/12/17 11:40:52;;;;;;;17.25;9.98;;;7.60;99.90;;;;;;4983264;28;20042;-84
2021/12/17 11:46:33;;;;;;;18.77;10.70;;;7.60;99.90;;;;;;4995230;28;20508;-85
2021/12/17 11:49:07;;;;;;;20.13;10.63;;;7.60;99.90;;;;;;4994205;28;20122;-86
2021/12/17 11:51:34;;;;;;;19.42;11.18;;;7.60;99.90;;;;;;4994546;28;20046;-85
2021/12/17 11:54:10;;;;;;;24.17;12.75;;;7.70;99.90;;;;;;4993462;28;20027;-85
2021/12/17 11:56:47;;;;;;;20.13;11.40;;;7.70;99.90;;;;;;4994613;28;20077;-85
2021/12/17 11:59:24;;;;;;;21.50;11.20;;;7.70;99.90;;;;;;4994345;28;20030;-85
2021/12/17 12:01:59;;;;;;;47.92;13.82;;;7.80;99.90;;;;;;4984943;28;20110;-85
2021/12/17 12:04:34;;;;;;;12.32;8.98;;;7.70;99.90;;;;;;4985207;28;20072;-84
2021/12/17 12:07:10;;;;;;;15.27;8.60;;;7.70;99.90;;;;;;4990670;28;20030;-86
2021/12/17 12:12:34;;;;;;;17.50;8.30;;;7.70;99.90;;;;;;4991140;28;20050;-84
2021/12/17 12:15:25;;;;;;;11.73;6.93;;;7.70;99.90;;;;;;4993680;28;20088;-85
2021/12/17 12:18:08;;;;;;;12.35;7.53;;;7.70;99.90;;;;;;4992531;28;20076;-85
2021/12/17 12:21:02;;;;;;;14.05;8.60;;;7.60;99.90;;;;;;4974261;28;20501;-85
2021/12/17 12:23:28;;;;;;;13.25;8.20;;;7.60;99.90;;;;;;4978562;28;20049;-85
2021/12/17 12:26:07;;;;;;;13.32;9.18;;;7.70;99.90;;;;;;4992088;28;20411;-85
2021/12/17 12:28:56;;;;;;;15.77;8.75;;;7.70;99.90;;;;;;4991094;28;20481;-86
2021/12/17 12:31:30;;;;;;;19.98;9.77;;;7.70;99.90;;;;;;4993966;28;20053;-84
2021/12/17 12:34:02;;;;;;;17.42;9.20;;;7.70;99.90;;;;;;4992556;28;20023;-84
2021/12/17 12:36:57;;;;;;;18.08;10.07;;;7.70;99.90;;;;;;4981415;28;20034;-85
2021/12/17 12:39:29;;;;;;;16.50;9.75;;;7.70;99.90;;;;;;4987618;28;20053;-84
2021/12/17 12:41:55;;;;;;;13.77;9.13;;;7.70;99.90;;;;;;4977888;28;20026;-85
2021/12/17 12:44:39;;;;;;;18.05;10.20;;;7.60;99.90;;;;;;4991870;28;20113;-84
2021/12/17 12:47:05;;;;;;;15.45;8.75;;;7.60;99.90;;;;;;4985594;28;20082;-85
2021/12/17 12:49:47;;;;;;;14.25;8.80;;;7.60;99.90;;;;;;4972674;28;20027;-85
2021/12/17 12:52:25;;;;;;;14.73;8.50;;;7.60;99.90;;;;;;4978410;28;20467;-85
2021/12/17 12:54:53;;;;;;;13.63;8.93;;;7.60;99.90;;;;;;4978663;28;20069;-85
2021/12/17 12:57:33;;;;;;;19.15;9.00;;;7.60;99.90;;;;;;4991796;28;20121;-86
2021/12/17 13:00:06;;;;;;;16.80;9.38;;;7.60;99.90;;;;;;4993323;28;20022;-85
2021/12/17 13:02:32;;;;;;;21.73;9.43;;;7.70;99.90;;;;;;4991908;28;20034;-85
2021/12/17 13:05:00;;;;;;;19.83;9.52;;;7.60;99.90;;;;;;4989091;28;20100;-85
2021/12/17 13:07:41;;;;;;;14.63;9.60;;;7.70;99.90;;;;;;4981488;28;20018;-86
2021/12/17 13:10:08;;;;;;;21.65;11.48;;;7.60;99.90;;;;;;4992111;28;20033;-85
2021/12/17 13:12:35;;;;;;;18.52;10.50;;;7.60;99.90;;;;;;4982335;28;20053;-85
2021/12/17 13:15:18;;;;;;;25.25;10.80;;;7.70;99.90;;;;;;4993303;28;20109;-85
2021/12/17 13:23:32;;;;;;;16.45;8.02;;;7.70;99.90;;;;;;4992894;28;20023;-84
2021/12/17 13:26:05;;;;;;;15.80;8.13;;;7.70;99.90;;;;;;4992974;28;20034;-84
2021/12/17 13:28:47;;;;;;;16.02;7.68;;;7.70;99.90;;;;;;4978023;28;20069;-84
2021/12/17 13:31:26;;;;;;;13.32;7.88;;;7.60;99.90;;;;;;5007020;28;20026;-84
2021/12/17 13:33:51;;;;;;;10.45;7.47;;;7.60;99.90;;;;;;4987678;28;20027;-85
2021/12/17 13:36:17;;;;;;;12.80;8.45;;;7.60;99.90;;;;;;5000511;28;20117;-85
2021/12/17 13:38:43;;;;;;;17.13;8.38;;;7.50;99.90;;;;;;4992990;28;20022;-85
2021/12/17 13:41:10;;;;;;;15.18;8.55;;;7.50;99.90;;;;;;4992123;28;20113;-85
2021/12/17 13:43:39;;;;;;;14.73;8.73;;;7.50;99.90;;;;;;4993082;28;20022;-85
2021/12/17 13:46:05;;;;;;;22.67;8.40;;;7.50;99.90;;;;;;4986050;28;20030;-86
2021/12/17 13:48:32;;;;;;;14.40;8.80;;;7.50;99.90;;;;;;4973337;28;20504;-86
2021/12/17 13:50:57;;;;;;;16.75;10.10;;;7.50;99.90;;;;;;4978936;28;20022;-85
2021/12/17 13:53:24;;;;;;;20.10;9.70;;;7.40;99.90;;;;;;4992963;28;20571;-85
2021/12/17 13:55:50;;;;;;;19.20;9.32;;;7.40;99.90;;;;;;4987436;28;20122;-85
2021/12/17 13:58:20;;;;;;;17.05;9.40;;;7.40;99.90;;;;;;4973499;28;20659;-84
2021/12/17 14:00:49;;;;;;;17.08;9.65;;;7.40;99.90;;;;;;4978464;28;20046;-85
2021/12/17 14:03:17;;;;;;;15.55;9.75;;;7.30;99.90;;;;;;4992022;28;20058;-86
2021/12/17 14:06:07;;;;;;;16.15;9.27;;;7.30;99.90;;;;;;4990128;28;20022;-85
2021/12/17 14:08:39;;;;;;;20.30;10.25;;;7.30;99.90;;;;;;4975137;28;20118;-85
2021/12/17 14:11:21;;;;;;;18.13;9.98;;;7.30;99.90;;;;;;4973720;28;20030;-86
2021/12/17 14:13:47;;;;;;;16.73;9.93;;;7.30;99.90;;;;;;4989476;28;20462;-84
2021/12/17 14:16:36;;;;;;;16.15;9.52;;;7.30;99.90;;;;;;4985790;28;20046;-84
2021/12/17 14:19:02;;;;;;;15.90;9.80;;;7.30;99.90;;;;;;4994056;28;20068;-84
2021/12/17 14:21:33;;;;;;;15.30;9.18;;;7.10;99.90;;;;;;5006624;28;20053;-85
2021/12/17 14:23:59;;;;;;;17.17;9.25;;;7.10;99.90;;;;;;4992472;28;20359;-84
2021/12/17 14:26:29;;;;;;;18.50;9.73;;;7.10;99.90;;;;;;4983840;28;20035;-84
2021/12/17 14:29:08;;;;;;;15.50;9.02;;;7.10;99.90;;;;;;4981345;28;20394;-85
2021/12/17 14:31:33;;;;;;;25.50;12.63;;;7.00;99.90;;;;;;4988294;28;20467;-85
2021/12/17 14:34:00;;;;;;;20.75;13.00;;;7.00;99.90;;;;;;4990004;28;20031;-85
2021/12/17 14:36:27;;;;;;;18.95;11.50;;;6.90;99.90;;;;;;4995380;28;20117;-84
2021/12/17 14:39:02;;;;;;;17.80;10.15;;;6.90;99.90;;;;;;4995733;28;20169;-84
2021/12/17 14:41:53;;;;;;;19.57;10.10;;;6.70;99.90;;;;;;4993110;28;20037;-85
2021/12/17 14:46:59;;;;;;;18.58;10.32;;;6.70;99.90;;;;;;4980597;28;20214;-84
2021/12/17 15:05:55;;;;;;;17.05;9.70;;;6.40;99.90;;;;;;4992204;28;20061;-84
2021/12/17 15:08:21;;;;;;;19.08;9.60;;;6.30;99.90;;;;;;4991542;28;20398;-84
2021/12/17 15:10:47;;;;;;;15.30;9.13;;;6.30;99.90;;;;;;4983545;28;20022;-84
2021/12/17 15:13:13;;;;;;;21.23;9.70;;;6.20;99.90;;;;;;4993790;28;20042;-84
2021/12/17 15:15:40;;;;;;;17.08;10.18;;;6.20;99.90;;;;;;4984782;28;20042;-84
2021/12/17 15:18:15;;;;;;;12.95;8.63;;;6.20;99.90;;;;;;4995630;28;20030;-84
2021/12/17 15:20:47;;;;;;;13.75;8.00;;;6.20;99.90;;;;;;4995337;28;20042;-84
2021/12/17 15:23:13;;;;;;;19.80;11.50;;;6.10;99.90;;;;;;4977252;28;20035;-84
2021/12/17 15:25:49;;;;;;;13.25;8.77;;;6.10;99.90;;;;;;4975917;28;20023;-84
2021/12/17 15:28:18;;;;;;;18.42;10.65;;;6.10;99.90;;;;;;4989454;28;20405;-84
2021/12/17 15:30:48;;;;;;;26.45;12.02;;;6.00;99.90;;;;;;4994114;28;20564;-84
2021/12/17 15:33:14;;;;;;;20.80;12.15;;;6.00;99.90;;;;;;4982875;28;20504;-84
2021/12/17 15:35:42;;;;;;;19.30;10.95;;;6.00;99.90;;;;;;4994894;28;20030;-83
2021/12/17 15:38:09;;;;;;;23.63;11.93;;;6.00;99.90;;;;;;4981109;28;20030;-83
2021/12/17 15:40:37;;;;;;;29.45;12.10;;;6.00;99.90;;;;;;4989296;28;20034;-83
2021/12/17 15:43:04;;;;;;;23.35;11.32;;;5.90;99.90;;;;;;4981617;28;20037;-83
2021/12/17 15:45:32;;;;;;;21.77;12.13;;;5.90;99.90;;;;;;4981199;28;20057;-82
2021/12/17 15:48:00;;;;;;;20.15;10.68;;;5.90;99.90;;;;;;4990274;28;20029;-83
2021/12/17 15:50:26;;;;;;;23.02;10.30;;;6.00;99.90;;;;;;4993669;28;20027;-83
2021/12/17 15:52:51;;;;;;;19.55;9.77;;;6.00;99.90;;;;;;4982283;28;20088;-83
2021/12/17 15:55:23;;;;;;;24.08;9.63;;;6.10;99.90;;;;;;5007007;28;20117;-83
2021/12/17 15:57:49;;;;;;;18.27;9.35;;;6.00;99.90;;;;;;4994674;28;20496;-83
2021/12/17 16:00:26;;;;;;;23.50;9.18;;;6.00;99.90;;;;;;4990339;28;20027;-83
2021/12/17 16:02:53;;;;;;;17.20;8.50;;;6.00;99.90;;;;;;4981310;28;20109;-83
2021/12/17 16:05:24;;;;;;;22.65;9.95;;;6.00;99.90;;;;;;4989147;28;20023;-83
2021/12/17 16:07:52;;;;;;;19.90;9.23;;;6.00;99.90;;;;;;4989764;28;20019;-83
2021/12/17 16:18:44;;;;;;;24.20;10.45;;;6.10;99.90;;;;;;4975057;28;20513;-83
2021/12/17 16:21:11;;;;;;;27.73;10.23;;;6.00;99.90;;;;;;4976880;28;20046;-83
2021/12/17 16:23:47;;;;;;;18.98;9.35;;;6.00;99.90;;;;;;4988758;28;20084;-83
2021/12/17 16:26:14;;;;;;;28.48;11.05;;;6.00;99.90;;;;;;4975622;28;20089;-83